Time;durP1;ratioP1;P1;durP2;ratioP2;P2;SDS_P1;SDS_P2;PMS_P1;PMS_P2;Temp;Humidity;BMP_temperature;BMP_pressure;BME280_temperature;BME280_humidity;BME280_pressure;Samples;Min_cycle;Max_cycle;Signal;HPM_P1;HPM_P2
2022/11/26 00:00:56;;;;;;;33.97;14.00;;;6.80;99.90;;;;;;5082302;28;20035;-71
2022/11/26 00:03:22;;;;;;;50.65;14.43;;;6.70;99.90;;;;;;5101245;28;20039;-70
2022/11/26 00:05:51;;;;;;;43.58;13.50;;;6.70;99.90;;;;;;5102537;28;20590;-70
2022/11/26 00:08:19;;;;;;;36.72;13.68;;;6.70;99.90;;;;;;5102304;28;20084;-69
2022/11/26 00:10:47;;;;;;;34.67;13.82;;;6.70;99.90;;;;;;5088254;28;20694;-69
2022/11/26 00:13:20;;;;;;;37.50;13.50;;;6.80;99.90;;;;;;5081722;28;20036;-70
2022/11/26 00:15:46;;;;;;;39.78;13.07;;;6.80;99.90;;;;;;5082477;28;20024;-71
2022/11/26 00:18:12;;;;;;;36.95;13.27;;;6.70;99.90;;;;;;5082348;28;20028;-70
2022/11/26 00:20:38;;;;;;;36.08;13.18;;;6.70;99.90;;;;;;5081677;28;20041;-69
2022/11/26 00:23:04;;;;;;;39.25;13.95;;;6.70;99.90;;;;;;5081851;28;20052;-70
2022/11/26 00:25:36;;;;;;;40.47;13.85;;;6.70;99.90;;;;;;5082109;28;20503;-71
2022/11/26 00:28:02;;;;;;;38.40;13.18;;;6.70;99.90;;;;;;5086800;28;20093;-71
2022/11/26 00:30:28;;;;;;;48.10;13.65;;;6.70;99.90;;;;;;5097997;28;20020;-70
2022/11/26 00:32:54;;;;;;;49.60;14.93;;;6.70;99.90;;;;;;5106424;28;20039;-69
2022/11/26 00:35:21;;;;;;;37.00;13.57;;;6.60;99.90;;;;;;5106122;28;20035;-70
2022/11/26 00:37:51;;;;;;;37.00;14.18;;;6.70;99.90;;;;;;5106115;28;20032;-70
2022/11/26 00:40:20;;;;;;;38.78;13.07;;;6.60;99.90;;;;;;5105723;28;20032;-70
2022/11/26 00:42:45;;;;;;;49.80;14.77;;;6.60;99.90;;;;;;5105600;28;20040;-69
2022/11/26 00:45:16;;;;;;;40.85;13.52;;;6.60;99.90;;;;;;5105898;28;20024;-70
2022/11/26 00:47:42;;;;;;;43.35;13.25;;;6.60;99.90;;;;;;5106010;28;20024;-70
2022/11/26 00:50:13;;;;;;;43.47;12.75;;;6.60;99.90;;;;;;5105263;28;20044;-70
2022/11/26 00:52:38;;;;;;;36.72;12.85;;;6.60;99.90;;;;;;5105691;28;20028;-70
2022/11/26 00:55:14;;;;;;;41.08;13.77;;;6.70;99.90;;;;;;5104639;28;20035;-70
2022/11/26 00:57:40;;;;;;;39.33;13.65;;;6.60;99.90;;;;;;5105335;28;20123;-70
2022/11/26 01:00:17;;;;;;;42.35;13.77;;;6.60;99.90;;;;;;5106068;28;20373;-71
2022/11/26 01:02:43;;;;;;;36.10;13.20;;;6.60;99.90;;;;;;5105294;28;20044;-69
2022/11/26 01:05:10;;;;;;;37.60;13.00;;;6.60;99.90;;;;;;5105581;28;20031;-70
2022/11/26 01:07:36;;;;;;;36.50;13.45;;;6.60;99.90;;;;;;5105455;28;20052;-70
2022/11/26 01:10:04;;;;;;;39.65;14.38;;;6.60;99.90;;;;;;5105196;28;20020;-70
2022/11/26 01:12:30;;;;;;;37.58;12.88;;;6.60;99.90;;;;;;5105431;28;20040;-70
2022/11/26 01:14:56;;;;;;;34.30;11.95;;;6.50;99.90;;;;;;5105857;28;20372;-70
2022/11/26 01:17:21;;;;;;;34.58;13.55;;;6.50;99.90;;;;;;5105422;28;20027;-70
2022/11/26 01:19:47;;;;;;;44.75;15.55;;;6.50;99.90;;;;;;5105154;28;20031;-70
2022/11/26 01:22:20;;;;;;;33.40;14.02;;;6.50;99.90;;;;;;5105253;28;20043;-70
2022/11/26 01:24:46;;;;;;;38.05;14.15;;;6.50;99.90;;;;;;5104716;28;20098;-70
2022/11/26 01:27:12;;;;;;;44.05;15.32;;;6.40;99.90;;;;;;5104575;28;20024;-70
2022/11/26 01:29:37;;;;;;;38.63;15.25;;;6.40;99.90;;;;;;5105045;28;20113;-70
2022/11/26 01:32:04;;;;;;;48.65;15.40;;;6.40;99.90;;;;;;5105157;28;20480;-71
2022/11/26 01:34:30;;;;;;;40.50;13.68;;;6.30;99.90;;;;;;5104851;28;20031;-71
2022/11/26 01:36:57;;;;;;;31.30;13.88;;;6.40;99.90;;;;;;5104299;28;20035;-71
2022/11/26 01:39:23;;;;;;;42.83;13.57;;;6.40;99.90;;;;;;5104317;28;20040;-71
2022/11/26 01:42:11;;;;;;;29.38;11.68;;;6.30;99.90;;;;;;5104588;28;20031;-69
2022/11/26 01:44:37;;;;;;;39.25;12.27;;;6.40;99.90;;;;;;5104587;28;20039;-70
2022/11/26 01:47:26;;;;;;;34.72;12.30;;;6.30;99.90;;;;;;5104359;28;20028;-71
2022/11/26 01:50:42;;;;;;;29.10;11.70;;;6.30;99.90;;;;;;5105132;28;20012;-70
2022/11/26 01:53:18;;;;;;;35.75;11.95;;;6.30;99.90;;;;;;5081219;28;20059;-69
2022/11/26 01:56:01;;;;;;;34.58;11.13;;;6.20;99.90;;;;;;5104093;28;20039;-69
2022/11/26 01:58:38;;;;;;;35.63;12.02;;;6.20;99.90;;;;;;5104844;28;20031;-71
2022/11/26 02:01:04;;;;;;;41.47;11.52;;;6.20;99.90;;;;;;5091605;28;20733;-70
2022/11/26 02:03:34;;;;;;;34.40;12.57;;;6.30;99.90;;;;;;5084190;28;20495;-69
2022/11/26 02:06:07;;;;;;;35.95;12.30;;;6.20;99.90;;;;;;5104330;28;20051;-69
2022/11/26 02:08:34;;;;;;;42.17;13.18;;;6.20;99.90;;;;;;5104340;28;20036;-70
2022/11/26 02:11:17;;;;;;;29.33;12.43;;;6.20;99.90;;;;;;5104903;28;20073;-70
2022/11/26 02:13:45;;;;;;;34.50;11.85;;;6.20;99.90;;;;;;5093682;28;20036;-70
2022/11/26 02:16:54;;;;;;;46.60;13.20;;;6.20;99.90;;;;;;5088406;28;20032;-71
2022/11/26 02:19:32;;;;;;;36.80;12.68;;;6.20;99.90;;;;;;5043125;28;20041;-70
2022/11/26 02:22:36;;;;;;;42.65;13.35;;;6.20;99.90;;;;;;5088710;28;20037;-71
2022/11/26 02:25:14;;;;;;;36.08;13.60;;;6.20;99.90;;;;;;5052257;28;20040;-70
2022/11/26 02:27:55;;;;;;;41.95;13.93;;;6.20;99.90;;;;;;5089605;28;20079;-70
2022/11/26 02:30:20;;;;;;;39.15;13.70;;;6.10;99.90;;;;;;5084899;28;20135;-71
2022/11/26 02:33:02;;;;;;;47.58;14.38;;;6.10;99.90;;;;;;5086620;28;20061;-70
2022/11/26 02:35:55;;;;;;;42.10;13.30;;;6.10;99.90;;;;;;5101893;28;20028;-70
2022/11/26 02:38:23;;;;;;;42.45;12.90;;;6.10;99.90;;;;;;5104492;28;20036;-69
2022/11/26 02:40:50;;;;;;;38.47;14.10;;;6.10;99.90;;;;;;5097509;28;20020;-70
2022/11/26 02:43:16;;;;;;;37.40;13.35;;;6.10;99.90;;;;;;5082279;28;20040;-71
2022/11/26 02:45:53;;;;;;;36.85;13.27;;;6.10;99.90;;;;;;5083026;28;20455;-71
2022/11/26 02:48:27;;;;;;;43.85;13.35;;;6.10;99.90;;;;;;5083063;28;20044;-70
2022/11/26 02:50:58;;;;;;;35.55;12.20;;;5.90;99.90;;;;;;5083811;28;20044;-70
2022/11/26 02:53:27;;;;;;;40.28;13.07;;;6.00;99.90;;;;;;5096764;28;20028;-70
2022/11/26 02:56:06;;;;;;;28.98;12.88;;;6.00;99.90;;;;;;5094895;28;20024;-70
2022/11/26 02:58:33;;;;;;;35.00;12.82;;;5.90;99.90;;;;;;5095371;28;20364;-71
2022/11/26 03:01:03;;;;;;;34.08;13.02;;;5.90;99.90;;;;;;5082710;28;20032;-70
2022/11/26 03:03:35;;;;;;;36.88;12.20;;;5.90;99.90;;;;;;5082998;28;20040;-72
2022/11/26 03:06:07;;;;;;;27.83;11.65;;;5.90;99.90;;;;;;5100188;28;20046;-71
2022/11/26 03:08:33;;;;;;;34.03;12.15;;;5.80;99.90;;;;;;5099242;28;20032;-72
2022/11/26 03:10:59;;;;;;;77.43;10.10;;;5.80;99.90;;;;;;5082538;28;20111;-71
2022/11/26 03:13:25;;;;;;;19.63;8.48;;;5.70;99.90;;;;;;5083317;28;20032;-70
2022/11/26 03:15:51;;;;;;;16.48;7.78;;;5.60;99.90;;;;;;5082812;28;20037;-70
2022/11/26 03:18:17;;;;;;;24.80;7.90;;;5.50;99.90;;;;;;5082133;28;20044;-70
2022/11/26 03:20:42;;;;;;;24.80;7.47;;;5.50;99.90;;;;;;5082559;28;20062;-70
2022/11/26 03:23:08;;;;;;;22.33;6.95;;;5.40;99.90;;;;;;5093048;28;20085;-71
2022/11/26 03:25:34;;;;;;;18.25;6.65;;;5.40;99.90;;;;;;5102990;28;20040;-71
2022/11/26 03:28:01;;;;;;;13.82;6.93;;;5.30;99.90;;;;;;5102981;28;20032;-71
2022/11/26 03:30:28;;;;;;;16.40;7.00;;;5.30;99.90;;;;;;5102275;28;20048;-71
2022/11/26 03:32:54;;;;;;;15.25;6.30;;;5.20;99.90;;;;;;5103096;28;20047;-70
2022/11/26 03:35:19;;;;;;;16.10;6.72;;;5.20;99.90;;;;;;5102998;28;20028;-70
2022/11/26 03:37:45;;;;;;;17.65;6.93;;;5.10;99.90;;;;;;5102282;28;20440;-71
2022/11/26 03:40:12;;;;;;;15.43;7.10;;;5.10;99.90;;;;;;5093727;28;20032;-72
2022/11/26 03:42:38;;;;;;;13.05;6.55;;;5.10;99.90;;;;;;5087055;28;20047;-71
2022/11/26 03:45:04;;;;;;;15.65;7.30;;;5.00;99.90;;;;;;5082219;28;20117;-71
2022/11/26 03:47:29;;;;;;;15.73;6.53;;;5.00;99.90;;;;;;5082503;28;20017;-70
2022/11/26 03:49:55;;;;;;;20.10;7.25;;;5.00;99.90;;;;;;5082095;28;20028;-72
2022/11/26 03:52:21;;;;;;;21.20;8.32;;;4.90;99.90;;;;;;5082067;28;20037;-70
2022/11/26 03:54:46;;;;;;;20.77;8.70;;;4.90;99.90;;;;;;5082943;28;20408;-70
2022/11/26 03:57:12;;;;;;;18.42;8.82;;;4.90;99.90;;;;;;5081979;28;20036;-71
2022/11/26 03:59:37;;;;;;;21.30;9.13;;;4.90;99.90;;;;;;5082001;28;20032;-70
2022/11/26 04:02:04;;;;;;;22.80;8.40;;;4.90;99.90;;;;;;5082130;28;20139;-71
2022/11/26 04:04:30;;;;;;;25.35;9.30;;;4.90;99.90;;;;;;5082435;28;20043;-72
2022/11/26 04:06:56;;;;;;;21.55;9.23;;;4.90;99.90;;;;;;5084488;28;20485;-70
2022/11/26 04:09:22;;;;;;;25.58;9.15;;;4.90;99.90;;;;;;5086079;28;20028;-71
2022/11/26 04:11:48;;;;;;;22.80;8.38;;;4.90;99.90;;;;;;5086156;28;20059;-71
2022/11/26 04:14:13;;;;;;;30.38;10.10;;;4.90;99.90;;;;;;5086564;28;20028;-70
2022/11/26 04:16:39;;;;;;;22.92;9.23;;;4.90;99.90;;;;;;5086344;28;20024;-71
2022/11/26 04:19:05;;;;;;;16.77;8.38;;;4.90;99.90;;;;;;5085816;28;20067;-71
2022/11/26 04:21:31;;;;;;;25.65;9.20;;;4.80;99.90;;;;;;5084156;28;20028;-71
2022/11/26 04:23:56;;;;;;;28.30;10.25;;;4.80;99.90;;;;;;5085431;28;20056;-71
2022/11/26 04:26:22;;;;;;;19.17;9.35;;;4.80;99.90;;;;;;5086699;28;20092;-70
2022/11/26 04:28:49;;;;;;;22.35;8.45;;;4.80;99.90;;;;;;5085386;28;20047;-72
2022/11/26 04:31:15;;;;;;;23.02;10.00;;;4.80;99.90;;;;;;5086392;28;20048;-72
2022/11/26 04:33:41;;;;;;;20.15;9.75;;;4.90;99.90;;;;;;5085424;28;20478;-72
2022/11/26 04:36:07;;;;;;;30.58;11.27;;;4.90;99.90;;;;;;5086243;28;20032;-72
2022/11/26 04:38:33;;;;;;;27.00;9.48;;;4.90;99.90;;;;;;5085220;28;20024;-71
2022/11/26 04:41:00;;;;;;;21.67;10.38;;;4.90;99.90;;;;;;5084383;28;20536;-71
2022/11/26 04:43:26;;;;;;;26.05;10.98;;;4.90;99.90;;;;;;5084447;28;20082;-72
2022/11/26 04:45:51;;;;;;;30.23;11.55;;;5.00;99.90;;;;;;5085970;28;20033;-70
2022/11/26 04:48:17;;;;;;;27.15;12.20;;;5.10;99.90;;;;;;5084846;28;20050;-72
2022/11/26 04:50:43;;;;;;;41.80;12.52;;;5.00;99.90;;;;;;5086205;28;20032;-70
2022/11/26 04:53:08;;;;;;;28.95;12.18;;;5.10;99.90;;;;;;5085109;28;20052;-71
2022/11/26 04:55:34;;;;;;;34.97;11.73;;;5.00;99.90;;;;;;5085754;28;20021;-72
2022/11/26 04:57:59;;;;;;;33.05;12.07;;;5.10;99.90;;;;;;5085539;28;20029;-71
2022/11/26 05:00:26;;;;;;;29.63;12.52;;;5.10;99.90;;;;;;5102807;28;20035;-72
2022/11/26 05:02:51;;;;;;;31.80;12.45;;;5.10;99.90;;;;;;5106545;28;20036;-71
2022/11/26 05:05:17;;;;;;;31.40;12.77;;;5.10;99.90;;;;;;5107246;28;20028;-71
2022/11/26 05:07:42;;;;;;;31.27;13.05;;;5.20;99.90;;;;;;5106717;28;20081;-72
2022/11/26 05:10:09;;;;;;;29.52;12.43;;;5.20;99.90;;;;;;5106014;28;20035;-71
2022/11/26 05:12:35;;;;;;;24.38;11.45;;;5.10;99.90;;;;;;5106293;28;20110;-71
2022/11/26 05:15:01;;;;;;;41.10;13.20;;;5.20;99.90;;;;;;5106328;28;20084;-71
2022/11/26 05:17:28;;;;;;;35.58;12.43;;;5.10;99.90;;;;;;5106671;28;20032;-72
2022/11/26 05:19:53;;;;;;;27.80;11.95;;;5.10;99.90;;;;;;5107070;28;20036;-71
2022/11/26 05:22:19;;;;;;;37.55;12.57;;;5.10;99.90;;;;;;5105600;28;20523;-70
2022/11/26 05:24:44;;;;;;;25.50;12.57;;;5.10;99.90;;;;;;5106628;28;20025;-70
2022/11/26 05:27:10;;;;;;;29.75;11.82;;;5.10;99.90;;;;;;5106431;28;20028;-71
2022/11/26 05:29:36;;;;;;;32.35;11.75;;;5.10;99.90;;;;;;5105956;28;20016;-71
2022/11/26 05:32:02;;;;;;;30.17;12.45;;;5.10;99.90;;;;;;5106254;28;20107;-72
2022/11/26 05:34:28;;;;;;;34.00;11.73;;;5.00;99.90;;;;;;5089182;28;20036;-71
2022/11/26 05:36:54;;;;;;;20.63;9.48;;;5.00;99.90;;;;;;5085515;28;20061;-71
2022/11/26 05:39:19;;;;;;;63.08;9.50;;;5.10;99.90;;;;;;5087986;28;20028;-71
2022/11/26 05:41:45;;;;;;;44.33;11.02;;;4.90;99.90;;;;;;5089322;28;20029;-71
2022/11/26 05:44:11;;;;;;;132.93;10.95;;;4.90;99.90;;;;;;5084365;28;20051;-71
2022/11/26 05:46:40;;;;;;;152.15;11.65;;;4.80;99.90;;;;;;5084112;28;20036;-72
2022/11/26 05:49:06;;;;;;;26.83;9.23;;;4.80;99.90;;;;;;5084552;28;20119;-72
2022/11/26 05:51:33;;;;;;;83.68;9.25;;;4.70;99.90;;;;;;5082932;28;20060;-71
2022/11/26 05:53:58;;;;;;;34.75;9.27;;;4.70;99.90;;;;;;5085221;28;20111;-71
2022/11/26 05:56:24;;;;;;;27.70;8.80;;;4.60;99.90;;;;;;5104710;28;20032;-71
2022/11/26 05:58:50;;;;;;;33.08;9.70;;;4.60;99.90;;;;;;5104475;28;20503;-70
2022/11/26 06:01:15;;;;;;;36.08;9.13;;;4.50;99.90;;;;;;5103103;28;20056;-70
2022/11/26 06:03:41;;;;;;;25.20;9.20;;;4.50;99.90;;;;;;5085271;28;20061;-72
2022/11/26 06:06:07;;;;;;;30.20;10.35;;;4.50;99.90;;;;;;5085670;28;20084;-70
2022/11/26 06:08:33;;;;;;;57.58;11.85;;;4.50;99.90;;;;;;5085434;28;20025;-72
2022/11/26 06:11:13;;;;;;;45.10;11.18;;;4.50;99.90;;;;;;5085315;28;20509;-71
2022/11/26 06:13:39;;;;;;;147.55;11.95;;;4.50;99.90;;;;;;5087047;28;20107;-72
2022/11/26 06:16:05;;;;;;;196.95;11.63;;;4.50;99.90;;;;;;5093800;28;20043;-71
2022/11/26 06:18:30;;;;;;;151.68;10.30;;;4.40;99.90;;;;;;5083436;28;20460;-71
2022/11/26 06:21:09;;;;;;;249.88;11.73;;;4.30;99.90;;;;;;5084415;28;20036;-71
2022/11/26 06:23:35;;;;;;;108.13;9.02;;;4.30;99.90;;;;;;5084399;28;20072;-72
2022/11/26 06:26:11;;;;;;;135.25;11.55;;;4.20;99.90;;;;;;5101763;28;20031;-72
2022/11/26 06:28:37;;;;;;;102.22;12.13;;;4.20;99.90;;;;;;5104219;28;20032;-70
2022/11/26 06:31:03;;;;;;;87.40;13.73;;;4.10;99.90;;;;;;5092757;28;20025;-70
2022/11/26 06:33:30;;;;;;;36.63;10.27;;;4.10;99.90;;;;;;5105675;28;20031;-71
2022/11/26 06:36:01;;;;;;;123.05;14.00;;;4.10;99.90;;;;;;5105513;28;20027;-72
2022/11/26 06:38:27;;;;;;;44.97;14.15;;;4.20;99.90;;;;;;5086982;28;20028;-71
2022/11/26 06:41:02;;;;;;;203.13;17.88;;;4.30;99.90;;;;;;5084767;28;20913;-71
2022/11/26 06:43:27;;;;;;;;;;;4.30;99.90;;;;;;5083758;28;20044;-71
2022/11/26 06:45:53;;;;;;;85.60;14.52;;;4.40;99.90;;;;;;5083340;28;19919;-71
2022/11/26 06:48:25;;;;;;;148.80;15.70;;;4.30;99.90;;;;;;5104122;28;20028;-71
2022/11/26 06:50:51;;;;;;;84.90;15.55;;;4.40;99.90;;;;;;5099295;28;20029;-72
2022/11/26 06:53:17;;;;;;;135.13;14.80;;;4.40;99.90;;;;;;5084865;28;20024;-70
2022/11/26 06:55:42;;;;;;;104.15;14.68;;;4.40;99.90;;;;;;5084216;28;20112;-70
2022/11/26 06:58:08;;;;;;;196.88;16.13;;;4.40;99.90;;;;;;5083802;28;20033;-73
2022/11/26 07:00:34;;;;;;;44.92;14.77;;;4.40;99.90;;;;;;5083790;28;20047;-73
2022/11/26 07:02:59;;;;;;;86.68;15.20;;;4.40;99.90;;;;;;5096838;28;20064;-72
2022/11/26 07:05:25;;;;;;;91.03;15.65;;;4.40;99.90;;;;;;5084606;28;20092;-72
2022/11/26 07:07:52;;;;;;;79.63;15.75;;;4.40;99.90;;;;;;5087542;28;20400;-73
2022/11/26 07:10:19;;;;;;;59.40;16.35;;;4.50;99.90;;;;;;5089567;28;20032;-73
2022/11/26 07:12:44;;;;;;;111.78;16.40;;;4.50;99.90;;;;;;5095840;28;20519;-73
2022/11/26 07:15:10;;;;;;;109.75;17.15;;;4.50;99.90;;;;;;5098348;28;20028;-72
2022/11/26 07:17:36;;;;;;;46.83;16.13;;;4.50;99.90;;;;;;5094881;28;20032;-73
2022/11/26 07:20:04;;;;;;;92.07;16.35;;;4.60;99.90;;;;;;5090445;28;20024;-74
2022/11/26 07:22:30;;;;;;;67.70;16.40;;;4.60;99.90;;;;;;5084184;28;20781;-73
2022/11/26 07:24:57;;;;;;;101.55;16.45;;;4.60;99.90;;;;;;5086481;28;20059;-73
2022/11/26 07:27:23;;;;;;;113.35;16.15;;;4.60;99.90;;;;;;5091320;28;20150;-73
2022/11/26 07:29:50;;;;;;;108.03;17.27;;;4.60;99.90;;;;;;5090530;28;20032;-73
2022/11/26 07:32:16;;;;;;;65.47;17.42;;;4.60;99.90;;;;;;5090046;28;20031;-74
2022/11/26 07:34:41;;;;;;;151.55;17.48;;;4.70;99.90;;;;;;5089550;28;20025;-73
2022/11/26 07:37:07;;;;;;;120.32;17.38;;;4.70;99.90;;;;;;5084474;28;20028;-72
2022/11/26 07:39:33;;;;;;;45.60;15.77;;;4.70;99.90;;;;;;5091488;28;20059;-73
2022/11/26 07:42:01;;;;;;;162.30;18.50;;;4.70;99.90;;;;;;5097594;28;20028;-72
2022/11/26 07:44:29;;;;;;;55.70;16.08;;;4.60;99.90;;;;;;5100611;28;20020;-72
2022/11/26 07:46:56;;;;;;;73.45;16.70;;;4.70;99.90;;;;;;5083982;28;20020;-74
2022/11/26 07:49:21;;;;;;;188.52;18.73;;;4.70;99.90;;;;;;5092209;28;20031;-72
2022/11/26 07:51:47;;;;;;;123.70;17.38;;;4.70;99.90;;;;;;5085524;28;20088;-72
2022/11/26 07:54:12;;;;;;;179.40;20.38;;;4.70;99.90;;;;;;5083774;28;20029;-71
2022/11/26 07:56:38;;;;;;;175.45;18.40;;;4.80;99.90;;;;;;5087634;28;20071;-72
2022/11/26 07:59:04;;;;;;;139.95;16.83;;;4.70;99.90;;;;;;5084010;28;20513;-73
2022/11/26 08:01:30;;;;;;;179.55;18.80;;;4.70;99.90;;;;;;5083810;28;20384;-71
2022/11/26 08:03:58;;;;;;;76.75;17.48;;;4.80;99.90;;;;;;5097991;28;20071;-72
2022/11/26 08:06:27;;;;;;;162.00;18.00;;;4.70;99.90;;;;;;5103992;28;20028;-72
2022/11/26 08:08:53;;;;;;;54.13;16.92;;;4.80;99.90;;;;;;5103213;28;20118;-71
2022/11/26 08:11:22;;;;;;;126.75;17.60;;;4.80;99.90;;;;;;5091338;28;20044;-74
2022/11/26 08:13:51;;;;;;;167.65;18.77;;;4.80;99.90;;;;;;5082618;28;20063;-72
2022/11/26 08:16:17;;;;;;;144.85;18.33;;;4.90;99.90;;;;;;5093139;28;20028;-72
2022/11/26 08:18:42;;;;;;;172.07;20.42;;;4.90;99.90;;;;;;5088730;28;20032;-71
2022/11/26 08:21:08;;;;;;;218.80;21.30;;;4.90;99.90;;;;;;5094391;28;20024;-71
2022/11/26 08:23:35;;;;;;;157.93;20.90;;;5.00;99.90;;;;;;5103589;28;20551;-74
2022/11/26 08:26:13;;;;;;;200.50;21.25;;;5.00;99.90;;;;;;5103860;28;20161;-71
2022/11/26 08:28:38;;;;;;;160.82;21.73;;;5.00;99.90;;;;;;5094499;28;20517;-70
2022/11/26 08:31:06;;;;;;;207.50;20.20;;;5.00;99.90;;;;;;5089448;28;20063;-70
2022/11/26 08:33:34;;;;;;;174.90;18.90;;;5.10;99.90;;;;;;5088175;28;20024;-72
2022/11/26 08:36:00;;;;;;;199.23;18.83;;;5.10;99.90;;;;;;5095155;28;20040;-72
2022/11/26 08:38:27;;;;;;;249.77;21.52;;;5.10;99.90;;;;;;5095839;28;20044;-71
2022/11/26 08:40:53;;;;;;;243.65;20.33;;;5.10;99.90;;;;;;5090440;28;20440;-70
2022/11/26 08:43:22;;;;;;;177.68;19.70;;;5.20;99.90;;;;;;5082313;28;20042;-71
2022/11/26 08:45:53;;;;;;;186.15;21.40;;;5.20;99.90;;;;;;5084668;28;20558;-71
2022/11/26 08:48:19;;;;;;;243.93;21.80;;;5.30;99.90;;;;;;5093357;28;20388;-71
2022/11/26 08:50:44;;;;;;;209.15;21.98;;;5.30;99.90;;;;;;5103226;28;20027;-71
2022/11/26 08:53:10;;;;;;;216.98;21.58;;;5.20;99.90;;;;;;5096855;28;20039;-71
2022/11/26 08:55:36;;;;;;;246.18;20.75;;;5.30;99.90;;;;;;5095022;28;20030;-71
2022/11/26 08:58:01;;;;;;;210.63;21.33;;;5.40;99.90;;;;;;5099611;28;20032;-72
2022/11/26 09:00:28;;;;;;;180.63;20.25;;;5.30;99.90;;;;;;5106424;28;20020;-70
2022/11/26 09:02:53;;;;;;;219.27;21.50;;;5.30;99.90;;;;;;5106435;28;20044;-69
2022/11/26 09:05:19;;;;;;;231.00;21.85;;;5.40;99.90;;;;;;5098743;28;20036;-71
2022/11/26 09:07:45;;;;;;;146.10;19.98;;;5.40;99.90;;;;;;5095214;28;20024;-71
2022/11/26 09:10:12;;;;;;;230.10;22.15;;;5.50;99.90;;;;;;5086594;28;20024;-71
2022/11/26 09:12:37;;;;;;;217.25;20.42;;;5.50;99.90;;;;;;5097891;28;20093;-73
2022/11/26 09:15:04;;;;;;;251.52;22.38;;;5.50;99.90;;;;;;5087637;28;20095;-70
2022/11/26 09:17:29;;;;;;;259.77;23.20;;;5.50;99.90;;;;;;5087334;28;20024;-70
2022/11/26 09:19:56;;;;;;;139.15;22.80;;;5.60;99.90;;;;;;5089065;28;20036;-72
2022/11/26 09:22:22;;;;;;;116.72;20.83;;;5.60;99.90;;;;;;5090296;28;20126;-70
2022/11/26 09:24:48;;;;;;;164.20;21.85;;;5.60;99.90;;;;;;5092458;28;20036;-71
2022/11/26 09:27:13;;;;;;;185.38;21.17;;;5.70;99.90;;;;;;5095080;28;20028;-73
2022/11/26 09:29:39;;;;;;;134.98;22.40;;;5.80;99.90;;;;;;5087891;28;20021;-71
2022/11/26 09:32:06;;;;;;;159.63;22.17;;;5.90;99.90;;;;;;5087014;28;20024;-71
2022/11/26 09:34:32;;;;;;;166.75;24.90;;;5.90;99.90;;;;;;5094510;28;20043;-71
2022/11/26 09:36:58;;;;;;;162.82;26.60;;;5.90;99.90;;;;;;5084947;28;20033;-72
2022/11/26 09:39:23;;;;;;;243.55;27.40;;;6.00;99.90;;;;;;5083565;28;20024;-72
2022/11/26 09:42:02;;;;;;;170.20;28.25;;;6.00;99.90;;;;;;5095064;28;20020;-73
2022/11/26 09:45:01;;;;;;;165.02;30.95;;;6.00;99.90;;;;;;5091642;28;20024;-72
2022/11/26 09:47:38;;;;;;;150.40;30.55;;;6.00;99.90;;;;;;5085660;28;20029;-73
2022/11/26 09:50:09;;;;;;;279.20;37.03;;;6.10;99.90;;;;;;5091955;28;20096;-73
2022/11/26 09:52:58;;;;;;;110.38;34.78;;;6.10;99.90;;;;;;5091653;28;20504;-71
2022/11/26 09:55:35;;;;;;;209.55;37.75;;;6.10;99.90;;;;;;5097591;28;20042;-72
2022/11/26 09:58:08;;;;;;;270.70;38.60;;;6.20;99.90;;;;;;5089884;28;20033;-72
2022/11/26 10:00:40;;;;;;;140.10;29.20;;;6.30;99.90;;;;;;5089094;28;20441;-75
2022/11/26 10:03:17;;;;;;;280.52;36.35;;;6.30;99.90;;;;;;5105142;28;20373;-72
2022/11/26 10:05:55;;;;;;;241.05;36.47;;;6.30;99.90;;;;;;5085856;28;20024;-72
2022/11/26 10:08:45;;;;;;;276.35;39.38;;;6.30;99.90;;;;;;5094058;28;20093;-70
2022/11/26 10:11:14;;;;;;;262.83;38.17;;;6.30;99.90;;;;;;5094580;28;20055;-71
2022/11/26 10:13:47;;;;;;;215.48;40.15;;;6.30;99.90;;;;;;5099426;28;20028;-71
2022/11/26 10:16:24;;;;;;;240.85;41.53;;;6.30;99.90;;;;;;5099316;28;20025;-71
2022/11/26 10:19:14;;;;;;;207.40;41.10;;;6.30;99.90;;;;;;5085505;28;20055;-71
2022/11/26 10:21:52;;;;;;;279.90;42.03;;;6.30;99.90;;;;;;5097002;28;20028;-70
2022/11/26 10:24:35;;;;;;;270.08;42.45;;;6.40;99.90;;;;;;5101385;28;20043;-71
2022/11/26 10:27:08;;;;;;;204.95;42.75;;;6.40;99.90;;;;;;5085011;28;20088;-73
2022/11/26 10:29:38;;;;;;;238.65;41.75;;;6.40;99.90;;;;;;5085191;28;20185;-73
2022/11/26 10:32:26;;;;;;;207.32;44.72;;;6.50;99.90;;;;;;5093137;28;20051;-72
2022/11/26 10:34:56;;;;;;;208.55;40.88;;;6.40;99.90;;;;;;5086107;28;20084;-71
2022/11/26 10:37:25;;;;;;;205.48;44.38;;;6.50;99.90;;;;;;5086617;28;20066;-71
2022/11/26 10:40:23;;;;;;;175.60;44.70;;;6.50;99.90;;;;;;5087570;28;20029;-72
2022/11/26 10:43:11;;;;;;;135.07;45.65;;;6.50;99.90;;;;;;5093991;28;20042;-72
2022/11/26 10:45:38;;;;;;;139.98;45.42;;;6.60;99.90;;;;;;5086659;28;20028;-72
2022/11/26 10:48:22;;;;;;;149.48;46.80;;;6.70;99.90;;;;;;5093920;28;20028;-72
2022/11/26 10:50:56;;;;;;;168.65;46.35;;;6.70;99.90;;;;;;5082654;28;20067;-71
2022/11/26 10:53:22;;;;;;;132.95;45.20;;;6.80;99.90;;;;;;5090473;28;20126;-71
2022/11/26 10:55:50;;;;;;;133.25;45.13;;;6.90;99.90;;;;;;5097432;28;20036;-72
2022/11/26 10:58:27;;;;;;;142.68;46.03;;;6.90;99.90;;;;;;5092914;28;20100;-71
2022/11/26 11:01:01;;;;;;;128.93;45.55;;;6.90;99.90;;;;;;5085749;28;20028;-72
2022/11/26 11:03:34;;;;;;;145.82;48.00;;;6.90;99.90;;;;;;5098609;28;20112;-73
2022/11/26 11:06:11;;;;;;;144.18;46.83;;;6.90;99.90;;;;;;5101003;28;20059;-72
2022/11/26 11:08:37;;;;;;;144.27;50.40;;;7.00;99.90;;;;;;5091423;28;20388;-73
2022/11/26 11:11:03;;;;;;;145.10;48.83;;;7.10;99.90;;;;;;5084887;28;20080;-71
2022/11/26 11:13:43;;;;;;;128.02;46.90;;;7.10;99.90;;;;;;5084492;28;20119;-75
2022/11/26 11:16:11;;;;;;;137.55;46.25;;;7.10;99.90;;;;;;5088979;28;20036;-72
2022/11/26 11:18:50;;;;;;;146.45;49.08;;;7.10;99.90;;;;;;5088575;28;20119;-73
2022/11/26 11:21:19;;;;;;;149.77;49.85;;;7.20;99.90;;;;;;5089494;28;20044;-73
2022/11/26 11:23:44;;;;;;;146.82;48.90;;;7.20;99.90;;;;;;5084324;28;20049;-73
2022/11/26 11:26:22;;;;;;;140.80;48.13;;;7.30;99.90;;;;;;5099247;28;20024;-73
2022/11/26 11:28:53;;;;;;;153.05;50.15;;;7.30;99.90;;;;;;5097930;28;20031;-73
2022/11/26 11:31:21;;;;;;;175.35;58.55;;;7.30;99.90;;;;;;5104096;28;20027;-73
2022/11/26 11:33:48;;;;;;;203.45;69.43;;;7.20;99.90;;;;;;5097574;28;20979;-73
2022/11/26 11:36:16;;;;;;;182.38;59.53;;;7.40;99.90;;;;;;5100314;28;20040;-73
2022/11/26 11:38:59;;;;;;;158.52;54.95;;;7.30;99.90;;;;;;5092681;28;20306;-73
2022/11/26 11:41:34;;;;;;;146.50;48.63;;;7.50;99.90;;;;;;5089165;28;20032;-73
2022/11/26 11:44:03;;;;;;;157.70;53.70;;;7.50;99.90;;;;;;5083584;28;20060;-75
2022/11/26 11:46:50;;;;;;;149.75;53.97;;;7.50;99.90;;;;;;5085019;28;20032;-73
2022/11/26 11:49:47;;;;;;;141.35;52.97;;;7.60;99.90;;;;;;5089385;28;20040;-73
2022/11/26 11:52:26;;;;;;;148.20;49.45;;;7.60;99.90;;;;;;5084006;28;20032;-73
2022/11/26 11:55:05;;;;;;;145.27;49.88;;;7.60;99.90;;;;;;5091786;28;20027;-72
2022/11/26 11:57:58;;;;;;;146.48;50.50;;;7.70;99.90;;;;;;5100696;28;20070;-74
2022/11/26 12:00:41;;;;;;;123.80;45.67;;;7.70;99.90;;;;;;5091115;28;20094;-73
2022/11/26 12:03:28;;;;;;;120.55;45.58;;;7.80;99.90;;;;;;5086912;28;20052;-71
2022/11/26 12:06:03;;;;;;;107.45;34.47;;;7.80;99.90;;;;;;5083653;28;20028;-73
2022/11/26 12:08:53;;;;;;;101.30;34.63;;;7.80;99.90;;;;;;5083806;28;20024;-70
2022/11/26 12:11:33;;;;;;;122.57;37.22;;;7.70;99.90;;;;;;5088731;28;20032;-72
2022/11/26 12:14:20;;;;;;;115.10;38.97;;;7.70;99.90;;;;;;5101627;28;20103;-71
2022/11/26 12:16:49;;;;;;;106.88;39.90;;;7.60;99.90;;;;;;5102869;28;20027;-70
2022/11/26 12:19:28;;;;;;;110.25;39.72;;;7.60;99.90;;;;;;5103140;28;20024;-69
2022/11/26 12:22:02;;;;;;;105.93;39.75;;;7.50;99.90;;;;;;5101092;28;20020;-73
2022/11/26 12:24:39;;;;;;;103.93;35.35;;;7.50;99.90;;;;;;5092298;28;20035;-69
2022/11/26 12:27:30;;;;;;;98.78;38.47;;;7.50;99.90;;;;;;5086822;28;20037;-71
2022/11/26 12:30:04;;;;;;;111.82;37.90;;;7.50;99.90;;;;;;5101351;28;20024;-70
2022/11/26 12:32:35;;;;;;;;;;;7.50;99.90;;;;;;5108290;28;20032;-73
2022/11/26 12:35:06;;;;;;;131.82;40.42;;;7.40;99.90;;;;;;5099082;28;20283;-70
2022/11/26 12:37:41;;;;;;;113.82;41.85;;;7.50;99.90;;;;;;5092705;28;20108;-68
2022/11/26 12:40:26;;;;;;;116.63;45.10;;;7.40;99.90;;;;;;5092356;28;20086;-73
2022/11/26 12:43:03;;;;;;;111.70;43.47;;;7.40;99.90;;;;;;5100866;28;20078;-71
2022/11/26 12:45:41;;;;;;;127.85;47.55;;;7.40;99.90;;;;;;5093704;28;20021;-73
2022/11/26 12:48:34;;;;;;;128.90;43.95;;;7.40;99.90;;;;;;5094960;28;20047;-70